sensor_id;sensor_type;location;lat;lon;timestamp;P1;durP1;ratioP1;P2;durP2;ratioP2
4001;SDS011;2015;48.670;9.060;2023-02-01T00:00:43;7.93;;;7.10;;
4001;SDS011;2015;48.670;9.060;2023-02-01T00:03:15;8.17;;;7.33;;
4001;SDS011;2015;48.670;9.060;2023-02-01T00:05:59;10.93;;;8.77;;
4001;SDS011;2015;48.670;9.060;2023-02-01T00:08:31;10.57;;;7.87;;
4001;SDS011;2015;48.670;9.060;2023-02-01T00:11:04;10.97;;;8.63;;
4001;SDS011;2015;48.670;9.060;2023-02-01T00:13:38;10.40;;;6.57;;
4001;SDS011;2015;48.670;9.060;2023-02-01T00:16:13;7.77;;;7.00;;
4001;SDS011;2015;48.670;9.060;2023-02-01T00:18:51;10.45;;;7.82;;
4001;SDS011;2015;48.670;9.060;2023-02-01T00:21:27;9.60;;;8.40;;
4001;SDS011;2015;48.670;9.060;2023-02-01T00:23:59;8.37;;;7.57;;
4001;SDS011;2015;48.670;9.060;2023-02-01T00:26:32;7.73;;;7.10;;
4001;SDS011;2015;48.670;9.060;2023-02-01T00:29:06;11.80;;;7.87;;
4001;SDS011;2015;48.670;9.060;2023-02-01T00:31:41;9.57;;;7.27;;
4001;SDS011;2015;48.670;9.060;2023-02-01T00:34:15;6.73;;;6.03;;
4001;SDS011;2015;48.670;9.060;2023-02-01T00:36:47;7.83;;;7.13;;
4001;SDS011;2015;48.670;9.060;2023-02-01T00:39:19;11.17;;;7.20;;
4001;SDS011;2015;48.670;9.060;2023-02-01T00:41:51;7.47;;;6.60;;
4001;SDS011;2015;48.670;9.060;2023-02-01T00:44:22;6.80;;;6.20;;
4001;SDS011;2015;48.670;9.060;2023-02-01T00:46:54;10.20;;;6.60;;
4001;SDS011;2015;48.670;9.060;2023-02-01T00:49:26;12.13;;;5.83;;
4001;SDS011;2015;48.670;9.060;2023-02-01T00:51:58;10.57;;;7.03;;
4001;SDS011;2015;48.670;9.060;2023-02-01T00:54:30;7.30;;;6.13;;
4001;SDS011;2015;48.670;9.060;2023-02-01T00:57:02;8.33;;;6.83;;
4001;SDS011;2015;48.670;9.060;2023-02-01T00:59:34;7.43;;;6.90;;
4001;SDS011;2015;48.670;9.060;2023-02-01T01:02:06;6.40;;;5.80;;
4001;SDS011;2015;48.670;9.060;2023-02-01T01:04:37;5.83;;;5.23;;
4001;SDS011;2015;48.670;9.060;2023-02-01T01:07:09;5.90;;;5.33;;
4001;SDS011;2015;48.670;9.060;2023-02-01T01:09:41;6.50;;;6.10;;
4001;SDS011;2015;48.670;9.060;2023-02-01T01:12:13;8.33;;;5.80;;
4001;SDS011;2015;48.670;9.060;2023-02-01T01:14:45;5.20;;;4.77;;
4001;SDS011;2015;48.670;9.060;2023-02-01T01:17:16;6.23;;;5.63;;
4001;SDS011;2015;48.670;9.060;2023-02-01T01:19:48;7.93;;;6.70;;
4001;SDS011;2015;48.670;9.060;2023-02-01T01:22:20;5.50;;;4.50;;
4001;SDS011;2015;48.670;9.060;2023-02-01T01:24:51;6.67;;;5.30;;
4001;SDS011;2015;48.670;9.060;2023-02-01T01:27:23;6.83;;;6.13;;
4001;SDS011;2015;48.670;9.060;2023-02-01T01:29:56;6.67;;;5.30;;
4001;SDS011;2015;48.670;9.060;2023-02-01T01:32:28;6.33;;;5.83;;
4001;SDS011;2015;48.670;9.060;2023-02-01T01:34:59;6.10;;;5.43;;
4001;SDS011;2015;48.670;9.060;2023-02-01T01:37:31;6.87;;;5.80;;
4001;SDS011;2015;48.670;9.060;2023-02-01T01:40:04;6.47;;;5.77;;
4001;SDS011;2015;48.670;9.060;2023-02-01T01:42:38;5.70;;;5.13;;
4001;SDS011;2015;48.670;9.060;2023-02-01T01:48:07;7.70;;;6.90;;
4001;SDS011;2015;48.670;9.060;2023-02-01T01:50:55;7.30;;;6.60;;
4001;SDS011;2015;48.670;9.060;2023-02-01T01:53:37;6.83;;;6.30;;
4001;SDS011;2015;48.670;9.060;2023-02-01T01:56:14;9.63;;;6.77;;
4001;SDS011;2015;48.670;9.060;2023-02-01T01:58:46;6.60;;;6.00;;
4001;SDS011;2015;48.670;9.060;2023-02-01T02:01:18;6.93;;;6.37;;
4001;SDS011;2015;48.670;9.060;2023-02-01T02:03:50;6.67;;;6.07;;
4001;SDS011;2015;48.670;9.060;2023-02-01T02:06:28;7.60;;;6.47;;
4001;SDS011;2015;48.670;9.060;2023-02-01T02:09:07;6.30;;;5.70;;
4001;SDS011;2015;48.670;9.060;2023-02-01T02:11:40;9.00;;;7.70;;
4001;SDS011;2015;48.670;9.060;2023-02-01T02:14:12;6.70;;;5.97;;
4001;SDS011;2015;48.670;9.060;2023-02-01T02:36:06;6.17;;;5.63;;
4001;SDS011;2015;48.670;9.060;2023-02-01T02:50:59;6.57;;;5.97;;
4001;SDS011;2015;48.670;9.060;2023-02-01T02:54:36;7.67;;;5.87;;
4001;SDS011;2015;48.670;9.060;2023-02-01T02:57:09;5.67;;;5.23;;
4001;SDS011;2015;48.670;9.060;2023-02-01T03:00:15;7.03;;;6.43;;
4001;SDS011;2015;48.670;9.060;2023-02-01T03:03:09;5.40;;;5.10;;
4001;SDS011;2015;48.670;9.060;2023-02-01T03:06:00;6.70;;;6.07;;
4001;SDS011;2015;48.670;9.060;2023-02-01T03:08:32;7.23;;;6.63;;
4001;SDS011;2015;48.670;9.060;2023-02-01T03:11:08;7.37;;;6.60;;
4001;SDS011;2015;48.670;9.060;2023-02-01T03:13:52;5.83;;;5.43;;
4001;SDS011;2015;48.670;9.060;2023-02-01T03:22:07;12.00;;;5.53;;
4001;SDS011;2015;48.670;9.060;2023-02-01T03:24:43;7.73;;;7.00;;
4001;SDS011;2015;48.670;9.060;2023-02-01T03:30:04;8.17;;;6.53;;
4001;SDS011;2015;48.670;9.060;2023-02-01T03:32:41;10.77;;;7.13;;
4001;SDS011;2015;48.670;9.060;2023-02-01T03:38:27;7.37;;;6.63;;
4001;SDS011;2015;48.670;9.060;2023-02-01T03:46:34;6.90;;;5.60;;
4001;SDS011;2015;48.670;9.060;2023-02-01T03:49:18;7.40;;;6.70;;
4001;SDS011;2015;48.670;9.060;2023-02-01T03:51:56;7.10;;;6.40;;
4001;SDS011;2015;48.670;9.060;2023-02-01T03:54:30;13.07;;;6.80;;
4001;SDS011;2015;48.670;9.060;2023-02-01T03:57:06;6.57;;;5.80;;
4001;SDS011;2015;48.670;9.060;2023-02-01T03:59:41;6.43;;;5.83;;
4001;SDS011;2015;48.670;9.060;2023-02-01T04:02:15;8.80;;;7.60;;
4001;SDS011;2015;48.670;9.060;2023-02-01T04:04:47;6.07;;;5.57;;
4001;SDS011;2015;48.670;9.060;2023-02-01T04:07:19;6.30;;;5.80;;
4001;SDS011;2015;48.670;9.060;2023-02-01T04:09:51;6.57;;;5.97;;
4001;SDS011;2015;48.670;9.060;2023-02-01T04:12:22;9.53;;;6.93;;
4001;SDS011;2015;48.670;9.060;2023-02-01T04:14:54;6.87;;;6.23;;
4001;SDS011;2015;48.670;9.060;2023-02-01T04:17:26;6.63;;;5.93;;
4001;SDS011;2015;48.670;9.060;2023-02-01T04:19:58;7.77;;;6.37;;
4001;SDS011;2015;48.670;9.060;2023-02-01T04:22:30;6.10;;;5.60;;
4001;SDS011;2015;48.670;9.060;2023-02-01T04:25:01;7.43;;;5.83;;
4001;SDS011;2015;48.670;9.060;2023-02-01T04:27:34;6.07;;;5.47;;
4001;SDS011;2015;48.670;9.060;2023-02-01T04:30:06;7.50;;;5.90;;
4001;SDS011;2015;48.670;9.060;2023-02-01T04:32:41;6.20;;;5.60;;
4001;SDS011;2015;48.670;9.060;2023-02-01T04:35:13;6.33;;;5.83;;
4001;SDS011;2015;48.670;9.060;2023-02-01T04:37:44;7.03;;;6.43;;
4001;SDS011;2015;48.670;9.060;2023-02-01T04:40:16;5.73;;;5.17;;
4001;SDS011;2015;48.670;9.060;2023-02-01T04:42:48;7.43;;;6.80;;
4001;SDS011;2015;48.670;9.060;2023-02-01T04:45:20;6.23;;;5.70;;
4001;SDS011;2015;48.670;9.060;2023-02-01T04:47:52;6.20;;;5.70;;
4001;SDS011;2015;48.670;9.060;2023-02-01T04:50:23;5.77;;;5.27;;
4001;SDS011;2015;48.670;9.060;2023-02-01T04:52:55;6.37;;;5.77;;
4001;SDS011;2015;48.670;9.060;2023-02-01T04:55:27;6.00;;;5.40;;
4001;SDS011;2015;48.670;9.060;2023-02-01T04:57:58;6.00;;;5.00;;
4001;SDS011;2015;48.670;9.060;2023-02-01T05:00:30;6.40;;;4.87;;
4001;SDS011;2015;48.670;9.060;2023-02-01T05:03:02;5.90;;;5.40;;
4001;SDS011;2015;48.670;9.060;2023-02-01T05:05:34;4.63;;;4.27;;
4001;SDS011;2015;48.670;9.060;2023-02-01T05:08:06;6.00;;;5.50;;
4001;SDS011;2015;48.670;9.060;2023-02-01T05:10:38;4.67;;;4.27;;
4001;SDS011;2015;48.670;9.060;2023-02-01T05:13:09;4.53;;;4.13;;
4001;SDS011;2015;48.670;9.060;2023-02-01T05:16:00;6.10;;;4.97;;
4001;SDS011;2015;48.670;9.060;2023-02-01T05:18:32;5.77;;;4.87;;
4001;SDS011;2015;48.670;9.060;2023-02-01T05:21:04;4.87;;;4.57;;
4001;SDS011;2015;48.670;9.060;2023-02-01T05:23:36;4.40;;;4.10;;
4001;SDS011;2015;48.670;9.060;2023-02-01T05:26:28;5.10;;;4.70;;
4001;SDS011;2015;48.670;9.060;2023-02-01T05:29:00;5.33;;;4.93;;
4001;SDS011;2015;48.670;9.060;2023-02-01T05:31:31;4.47;;;4.17;;
4001;SDS011;2015;48.670;9.060;2023-02-01T05:34:03;4.43;;;4.10;;
4001;SDS011;2015;48.670;9.060;2023-02-01T05:36:36;4.03;;;3.73;;
4001;SDS011;2015;48.670;9.060;2023-02-01T05:39:07;4.40;;;4.10;;
4001;SDS011;2015;48.670;9.060;2023-02-01T05:41:39;3.77;;;3.47;;
4001;SDS011;2015;48.670;9.060;2023-02-01T05:44:11;5.83;;;5.07;;
4001;SDS011;2015;48.670;9.060;2023-02-01T05:46:43;3.67;;;3.40;;
4001;SDS011;2015;48.670;9.060;2023-02-01T05:49:15;4.87;;;4.47;;
4001;SDS011;2015;48.670;9.060;2023-02-01T05:51:46;4.03;;;3.73;;
4001;SDS011;2015;48.670;9.060;2023-02-01T05:54:18;4.40;;;4.00;;
4001;SDS011;2015;48.670;9.060;2023-02-01T05:56:50;5.67;;;4.30;;
4001;SDS011;2015;48.670;9.060;2023-02-01T05:59:22;4.80;;;4.30;;
4001;SDS011;2015;48.670;9.060;2023-02-01T06:01:53;4.27;;;3.93;;
4001;SDS011;2015;48.670;9.060;2023-02-01T06:04:25;5.50;;;5.00;;
4001;SDS011;2015;48.670;9.060;2023-02-01T06:06:57;4.73;;;4.33;;
4001;SDS011;2015;48.670;9.060;2023-02-01T06:09:29;5.10;;;4.80;;
4001;SDS011;2015;48.670;9.060;2023-02-01T06:12:01;6.90;;;5.07;;
4001;SDS011;2015;48.670;9.060;2023-02-01T06:14:33;6.50;;;5.00;;
4001;SDS011;2015;48.670;9.060;2023-02-01T06:17:05;6.43;;;5.80;;
4001;SDS011;2015;48.670;9.060;2023-02-01T06:19:37;6.03;;;5.70;;
4001;SDS011;2015;48.670;9.060;2023-02-01T06:22:09;6.20;;;5.70;;
4001;SDS011;2015;48.670;9.060;2023-02-01T06:24:41;5.90;;;5.40;;
4001;SDS011;2015;48.670;9.060;2023-02-01T06:27:12;5.90;;;5.40;;
4001;SDS011;2015;48.670;9.060;2023-02-01T06:29:44;6.03;;;5.43;;
4001;SDS011;2015;48.670;9.060;2023-02-01T06:32:16;5.60;;;5.10;;
4001;SDS011;2015;48.670;9.060;2023-02-01T06:34:48;4.60;;;4.20;;
4001;SDS011;2015;48.670;9.060;2023-02-01T06:37:20;5.10;;;4.73;;
4001;SDS011;2015;48.670;9.060;2023-02-01T06:39:52;5.63;;;5.23;;
4001;SDS011;2015;48.670;9.060;2023-02-01T06:42:24;5.63;;;5.23;;
4001;SDS011;2015;48.670;9.060;2023-02-01T06:44:56;5.50;;;5.00;;
4001;SDS011;2015;48.670;9.060;2023-02-01T06:47:28;5.23;;;4.77;;
4001;SDS011;2015;48.670;9.060;2023-02-01T06:50:00;6.03;;;5.63;;
4001;SDS011;2015;48.670;9.060;2023-02-01T06:52:32;8.07;;;5.40;;
4001;SDS011;2015;48.670;9.060;2023-02-01T06:55:04;5.37;;;4.90;;
4001;SDS011;2015;48.670;9.060;2023-02-01T06:57:36;8.13;;;5.90;;
4001;SDS011;2015;48.670;9.060;2023-02-01T07:00:08;6.13;;;5.63;;
4001;SDS011;2015;48.670;9.060;2023-02-01T07:02:40;5.80;;;5.30;;
4001;SDS011;2015;48.670;9.060;2023-02-01T07:05:12;5.13;;;4.63;;
4001;SDS011;2015;48.670;9.060;2023-02-01T07:07:43;4.43;;;4.13;;
4001;SDS011;2015;48.670;9.060;2023-02-01T07:10:15;5.00;;;4.70;;
4001;SDS011;2015;48.670;9.060;2023-02-01T07:12:47;9.47;;;4.97;;
4001;SDS011;2015;48.670;9.060;2023-02-01T07:15:19;4.40;;;4.10;;
4001;SDS011;2015;48.670;9.060;2023-02-01T07:17:55;5.10;;;4.80;;
4001;SDS011;2015;48.670;9.060;2023-02-01T07:20:27;5.30;;;4.80;;
4001;SDS011;2015;48.670;9.060;2023-02-01T07:22:59;4.97;;;4.57;;
4001;SDS011;2015;48.670;9.060;2023-02-01T07:25:31;4.90;;;4.60;;
4001;SDS011;2015;48.670;9.060;2023-02-01T07:28:05;5.57;;;4.97;;
4001;SDS011;2015;48.670;9.060;2023-02-01T07:30:37;6.57;;;5.00;;
4001;SDS011;2015;48.670;9.060;2023-02-01T07:33:08;7.30;;;4.40;;
4001;SDS011;2015;48.670;9.060;2023-02-01T07:35:40;5.47;;;4.97;;
4001;SDS011;2015;48.670;9.060;2023-02-01T07:38:12;4.47;;;4.23;;
4001;SDS011;2015;48.670;9.060;2023-02-01T07:40:44;4.70;;;4.40;;
4001;SDS011;2015;48.670;9.060;2023-02-01T07:43:15;4.47;;;4.17;;
4001;SDS011;2015;48.670;9.060;2023-02-01T07:45:50;5.47;;;4.90;;
4001;SDS011;2015;48.670;9.060;2023-02-01T07:48:23;4.57;;;4.17;;
4001;SDS011;2015;48.670;9.060;2023-02-01T07:51:00;5.30;;;4.80;;
4001;SDS011;2015;48.670;9.060;2023-02-01T07:53:36;4.73;;;4.33;;
4001;SDS011;2015;48.670;9.060;2023-02-01T07:56:26;4.27;;;3.93;;
4001;SDS011;2015;48.670;9.060;2023-02-01T07:58:58;5.00;;;4.33;;
4001;SDS011;2015;48.670;9.060;2023-02-01T08:01:31;4.97;;;4.10;;
4001;SDS011;2015;48.670;9.060;2023-02-01T08:04:03;4.40;;;4.10;;
4001;SDS011;2015;48.670;9.060;2023-02-01T08:06:35;4.10;;;3.80;;
4001;SDS011;2015;48.670;9.060;2023-02-01T08:09:07;5.20;;;4.70;;
4001;SDS011;2015;48.670;9.060;2023-02-01T08:11:39;5.20;;;4.87;;
4001;SDS011;2015;48.670;9.060;2023-02-01T08:14:11;5.20;;;3.60;;
4001;SDS011;2015;48.670;9.060;2023-02-01T08:16:42;4.87;;;4.57;;
4001;SDS011;2015;48.670;9.060;2023-02-01T08:19:14;4.90;;;4.50;;
4001;SDS011;2015;48.670;9.060;2023-02-01T08:21:46;4.97;;;4.20;;
4001;SDS011;2015;48.670;9.060;2023-02-01T08:24:19;4.93;;;4.63;;
4001;SDS011;2015;48.670;9.060;2023-02-01T08:26:52;5.03;;;4.77;;
4001;SDS011;2015;48.670;9.060;2023-02-01T08:29:24;5.23;;;4.73;;
4001;SDS011;2015;48.670;9.060;2023-02-01T08:31:56;5.90;;;5.10;;
4001;SDS011;2015;48.670;9.060;2023-02-01T08:34:28;4.53;;;4.13;;
4001;SDS011;2015;48.670;9.060;2023-02-01T08:37:00;5.13;;;4.73;;
4001;SDS011;2015;48.670;9.060;2023-02-01T08:39:31;4.87;;;4.50;;
4001;SDS011;2015;48.670;9.060;2023-02-01T08:42:03;5.53;;;5.10;;
4001;SDS011;2015;48.670;9.060;2023-02-01T08:44:53;4.67;;;4.37;;
4001;SDS011;2015;48.670;9.060;2023-02-01T08:47:25;4.70;;;4.40;;
4001;SDS011;2015;48.670;9.060;2023-02-01T08:49:57;5.00;;;4.60;;
4001;SDS011;2015;48.670;9.060;2023-02-01T08:52:29;6.50;;;4.00;;
4001;SDS011;2015;48.670;9.060;2023-02-01T08:55:00;4.47;;;4.13;;
4001;SDS011;2015;48.670;9.060;2023-02-01T08:57:33;5.40;;;3.83;;
4001;SDS011;2015;48.670;9.060;2023-02-01T09:00:06;4.13;;;3.73;;
4001;SDS011;2015;48.670;9.060;2023-02-01T09:02:41;4.97;;;4.67;;
4001;SDS011;2015;48.670;9.060;2023-02-01T09:05:13;5.83;;;4.43;;
4001;SDS011;2015;48.670;9.060;2023-02-01T09:07:47;5.20;;;4.55;;
4001;SDS011;2015;48.670;9.060;2023-02-01T09:10:19;4.77;;;4.30;;
4001;SDS011;2015;48.670;9.060;2023-02-01T09:13:05;4.37;;;4.07;;
4001;SDS011;2015;48.670;9.060;2023-02-01T09:15:37;6.30;;;4.13;;
4001;SDS011;2015;48.670;9.060;2023-02-01T09:18:09;4.63;;;4.27;;
4001;SDS011;2015;48.670;9.060;2023-02-01T09:20:40;5.07;;;4.57;;
4001;SDS011;2015;48.670;9.060;2023-02-01T09:23:12;5.70;;;3.83;;
4001;SDS011;2015;48.670;9.060;2023-02-01T09:25:44;4.13;;;3.80;;
4001;SDS011;2015;48.670;9.060;2023-02-01T09:28:16;4.20;;;3.80;;
4001;SDS011;2015;48.670;9.060;2023-02-01T09:30:48;3.63;;;3.30;;
4001;SDS011;2015;48.670;9.060;2023-02-01T09:33:20;3.70;;;3.40;;
4001;SDS011;2015;48.670;9.060;2023-02-01T09:35:56;3.90;;;3.60;;
4001;SDS011;2015;48.670;9.060;2023-02-01T09:38:29;4.93;;;3.77;;
4001;SDS011;2015;48.670;9.060;2023-02-01T09:41:10;3.97;;;3.70;;
4001;SDS011;2015;48.670;9.060;2023-02-01T09:47:14;4.40;;;4.03;;
4001;SDS011;2015;48.670;9.060;2023-02-01T09:55:38;11.27;;;8.53;;
4001;SDS011;2015;48.670;9.060;2023-02-01T10:00:50;7.40;;;3.97;;
4001;SDS011;2015;48.670;9.060;2023-02-01T10:03:27;5.80;;;4.13;;
4001;SDS011;2015;48.670;9.060;2023-02-01T10:06:07;5.10;;;4.70;;
4001;SDS011;2015;48.670;9.060;2023-02-01T10:14:34;4.37;;;3.97;;
4001;SDS011;2015;48.670;9.060;2023-02-01T10:25:42;5.30;;;4.73;;
4001;SDS011;2015;48.670;9.060;2023-02-01T10:28:24;7.57;;;5.43;;
4001;SDS011;2015;48.670;9.060;2023-02-01T10:30:57;8.13;;;7.47;;
4001;SDS011;2015;48.670;9.060;2023-02-01T10:33:34;6.00;;;4.43;;
4001;SDS011;2015;48.670;9.060;2023-02-01T10:36:34;7.20;;;4.50;;
4001;SDS011;2015;48.670;9.060;2023-02-01T10:39:11;5.33;;;4.87;;
4001;SDS011;2015;48.670;9.060;2023-02-01T10:41:46;11.53;;;4.20;;
4001;SDS011;2015;48.670;9.060;2023-02-01T10:44:23;5.03;;;4.30;;
4001;SDS011;2015;48.670;9.060;2023-02-01T10:46:58;7.40;;;3.90;;
4001;SDS011;2015;48.670;9.060;2023-02-01T10:49:33;9.60;;;3.67;;
4001;SDS011;2015;48.670;9.060;2023-02-01T10:58:03;6.07;;;4.23;;
4001;SDS011;2015;48.670;9.060;2023-02-01T11:14:27;5.90;;;3.90;;
4001;SDS011;2015;48.670;9.060;2023-02-01T11:20:11;4.70;;;4.13;;
4001;SDS011;2015;48.670;9.060;2023-02-01T11:22:46;10.60;;;4.70;;
4001;SDS011;2015;48.670;9.060;2023-02-01T11:25:19;3.50;;;3.27;;
4001;SDS011;2015;48.670;9.060;2023-02-01T11:27:53;5.57;;;3.67;;
4001;SDS011;2015;48.670;9.060;2023-02-01T11:30:30;5.10;;;4.47;;
4001;SDS011;2015;48.670;9.060;2023-02-01T11:33:05;6.20;;;3.50;;
4001;SDS011;2015;48.670;9.060;2023-02-01T11:35:43;6.70;;;6.13;;
4001;SDS011;2015;48.670;9.060;2023-02-01T11:38:20;8.33;;;3.07;;
4001;SDS011;2015;48.670;9.060;2023-02-01T11:41:14;6.47;;;4.90;;
4001;SDS011;2015;48.670;9.060;2023-02-01T11:43:55;6.00;;;4.13;;
4001;SDS011;2015;48.670;9.060;2023-02-01T11:46:32;5.23;;;4.10;;
4001;SDS011;2015;48.670;9.060;2023-02-01T11:49:21;11.97;;;5.20;;
4001;SDS011;2015;48.670;9.060;2023-02-01T11:52:39;5.07;;;2.80;;
4001;SDS011;2015;48.670;9.060;2023-02-01T12:09:24;7.03;;;3.77;;
4001;SDS011;2015;48.670;9.060;2023-02-01T12:12:05;3.67;;;3.37;;
4001;SDS011;2015;48.670;9.060;2023-02-01T12:14:56;5.57;;;3.10;;
4001;SDS011;2015;48.670;9.060;2023-02-01T12:25:57;4.07;;;3.70;;
4001;SDS011;2015;48.670;9.060;2023-02-01T12:28:53;5.50;;;2.97;;
4001;SDS011;2015;48.670;9.060;2023-02-01T12:43:49;12.93;;;3.77;;
4001;SDS011;2015;48.670;9.060;2023-02-01T12:46:27;6.60;;;4.13;;
4001;SDS011;2015;48.670;9.060;2023-02-01T12:49:02;8.13;;;3.60;;
4001;SDS011;2015;48.670;9.060;2023-02-01T12:51:41;8.97;;;3.17;;
4001;SDS011;2015;48.670;9.060;2023-02-01T12:54:26;4.50;;;3.10;;
4001;SDS011;2015;48.670;9.060;2023-02-01T12:57:28;9.73;;;3.67;;
4001;SDS011;2015;48.670;9.060;2023-02-01T13:00:07;6.23;;;3.07;;
4001;SDS011;2015;48.670;9.060;2023-02-01T13:02:59;6.97;;;3.87;;
4001;SDS011;2015;48.670;9.060;2023-02-01T13:06:25;5.13;;;3.33;;
4001;SDS011;2015;48.670;9.060;2023-02-01T13:14:10;9.63;;;3.80;;
4001;SDS011;2015;48.670;9.060;2023-02-01T13:16:50;4.57;;;4.20;;
4001;SDS011;2015;48.670;9.060;2023-02-01T13:19:29;4.43;;;4.03;;
4001;SDS011;2015;48.670;9.060;2023-02-01T13:22:12;4.60;;;3.50;;
4001;SDS011;2015;48.670;9.060;2023-02-01T13:24:50;5.80;;;3.97;;
4001;SDS011;2015;48.670;9.060;2023-02-01T13:27:58;5.63;;;4.33;;
4001;SDS011;2015;48.670;9.060;2023-02-01T13:30:42;9.63;;;4.73;;
4001;SDS011;2015;48.670;9.060;2023-02-01T13:45:20;4.63;;;3.70;;
4001;SDS011;2015;48.670;9.060;2023-02-01T13:47:57;8.33;;;3.93;;
4001;SDS011;2015;48.670;9.060;2023-02-01T13:50:37;4.83;;;3.77;;
4001;SDS011;2015;48.670;9.060;2023-02-01T13:55:46;6.97;;;6.27;;
4001;SDS011;2015;48.670;9.060;2023-02-01T13:58:38;7.03;;;3.30;;
4001;SDS011;2015;48.670;9.060;2023-02-01T14:03:56;7.03;;;4.20;;
4001;SDS011;2015;48.670;9.060;2023-02-01T14:11:52;7.95;;;3.42;;
4001;SDS011;2015;48.670;9.060;2023-02-01T14:19:31;9.23;;;5.33;;
4001;SDS011;2015;48.670;9.060;2023-02-01T14:24:52;10.93;;;4.47;;
4001;SDS011;2015;48.670;9.060;2023-02-01T14:27:28;8.53;;;4.33;;
4001;SDS011;2015;48.670;9.060;2023-02-01T14:30:06;10.40;;;4.43;;
4001;SDS011;2015;48.670;9.060;2023-02-01T14:32:45;5.60;;;3.33;;
4001;SDS011;2015;48.670;9.060;2023-02-01T14:38:00;8.03;;;4.10;;
4001;SDS011;2015;48.670;9.060;2023-02-01T14:40:35;8.80;;;3.60;;
4001;SDS011;2015;48.670;9.060;2023-02-01T14:43:07;5.43;;;4.93;;
4001;SDS011;2015;48.670;9.060;2023-02-01T14:45:59;6.20;;;3.67;;
4001;SDS011;2015;48.670;9.060;2023-02-01T14:51:03;5.23;;;3.60;;
4001;SDS011;2015;48.670;9.060;2023-02-01T14:53:37;3.90;;;3.50;;
4001;SDS011;2015;48.670;9.060;2023-02-01T14:56:14;4.00;;;3.70;;
4001;SDS011;2015;48.670;9.060;2023-02-01T15:01:38;6.93;;;3.80;;
4001;SDS011;2015;48.670;9.060;2023-02-01T15:04:18;9.80;;;4.73;;
4001;SDS011;2015;48.670;9.060;2023-02-01T15:09:44;7.77;;;4.00;;
4001;SDS011;2015;48.670;9.060;2023-02-01T15:12:22;17.63;;;4.03;;
4001;SDS011;2015;48.670;9.060;2023-02-01T15:15:14;5.03;;;4.10;;
4001;SDS011;2015;48.670;9.060;2023-02-01T15:17:53;12.47;;;4.73;;
4001;SDS011;2015;48.670;9.060;2023-02-01T15:20:32;5.97;;;3.33;;
4001;SDS011;2015;48.670;9.060;2023-02-01T15:23:05;5.43;;;4.93;;
4001;SDS011;2015;48.670;9.060;2023-02-01T15:25:46;9.10;;;4.53;;
4001;SDS011;2015;48.670;9.060;2023-02-01T15:28:26;5.67;;;3.63;;
4001;SDS011;2015;48.670;9.060;2023-02-01T15:30:59;6.83;;;4.30;;
4001;SDS011;2015;48.670;9.060;2023-02-01T15:33:33;7.63;;;4.10;;
4001;SDS011;2015;48.670;9.060;2023-02-01T15:38:37;4.57;;;4.10;;
4001;SDS011;2015;48.670;9.060;2023-02-01T15:41:18;5.33;;;4.00;;
4001;SDS011;2015;48.670;9.060;2023-02-01T15:46:46;12.47;;;4.60;;
4001;SDS011;2015;48.670;9.060;2023-02-01T15:49:20;4.67;;;3.90;;
4001;SDS011;2015;48.670;9.060;2023-02-01T15:51:52;5.00;;;4.00;;
4001;SDS011;2015;48.670;9.060;2023-02-01T15:54:41;6.40;;;5.07;;
4001;SDS011;2015;48.670;9.060;2023-02-01T15:57:19;9.20;;;4.47;;
4001;SDS011;2015;48.670;9.060;2023-02-01T16:00:03;7.37;;;4.43;;
4001;SDS011;2015;48.670;9.060;2023-02-01T16:02:56;5.23;;;4.43;;
4001;SDS011;2015;48.670;9.060;2023-02-01T16:05:33;7.37;;;4.40;;
4001;SDS011;2015;48.670;9.060;2023-02-01T16:08:16;5.37;;;4.90;;
4001;SDS011;2015;48.670;9.060;2023-02-01T16:10:54;12.37;;;5.53;;
4001;SDS011;2015;48.670;9.060;2023-02-01T16:13:32;6.73;;;5.70;;
4001;SDS011;2015;48.670;9.060;2023-02-01T16:16:04;8.20;;;4.60;;
4001;SDS011;2015;48.670;9.060;2023-02-01T16:18:39;5.80;;;4.77;;
4001;SDS011;2015;48.670;9.060;2023-02-01T16:21:12;5.87;;;4.97;;
4001;SDS011;2015;48.670;9.060;2023-02-01T16:23:47;9.10;;;3.87;;
4001;SDS011;2015;48.670;9.060;2023-02-01T16:26:21;5.03;;;4.55;;
4001;SDS011;2015;48.670;9.060;2023-02-01T16:28:53;7.43;;;5.17;;
4001;SDS011;2015;48.670;9.060;2023-02-01T16:31:26;11.30;;;4.87;;
4001;SDS011;2015;48.670;9.060;2023-02-01T16:34:00;6.90;;;4.70;;
4001;SDS011;2015;48.670;9.060;2023-02-01T16:36:33;11.73;;;5.50;;
4001;SDS011;2015;48.670;9.060;2023-02-01T16:39:05;5.57;;;4.53;;
4001;SDS011;2015;48.670;9.060;2023-02-01T16:41:46;10.27;;;4.20;;
4001;SDS011;2015;48.670;9.060;2023-02-01T16:44:18;9.07;;;4.90;;
4001;SDS011;2015;48.670;9.060;2023-02-01T16:46:50;13.50;;;4.57;;
4001;SDS011;2015;48.670;9.060;2023-02-01T16:49:23;5.93;;;3.90;;
4001;SDS011;2015;48.670;9.060;2023-02-01T16:51:56;9.43;;;4.10;;
4001;SDS011;2015;48.670;9.060;2023-02-01T16:54:29;8.80;;;4.87;;
4001;SDS011;2015;48.670;9.060;2023-02-01T16:57:01;7.67;;;4.13;;
4001;SDS011;2015;48.670;9.060;2023-02-01T16:59:33;8.10;;;5.17;;
4001;SDS011;2015;48.670;9.060;2023-02-01T17:02:05;6.80;;;4.60;;
4001;SDS011;2015;48.670;9.060;2023-02-01T17:04:37;9.43;;;5.00;;
4001;SDS011;2015;48.670;9.060;2023-02-01T17:07:11;13.20;;;4.77;;
4001;SDS011;2015;48.670;9.060;2023-02-01T17:09:45;5.10;;;4.33;;
4001;SDS011;2015;48.670;9.060;2023-02-01T17:14:54;4.90;;;4.40;;
4001;SDS011;2015;48.670;9.060;2023-02-01T17:17:32;6.83;;;5.17;;
4001;SDS011;2015;48.670;9.060;2023-02-01T17:20:16;5.07;;;4.47;;
4001;SDS011;2015;48.670;9.060;2023-02-01T17:22:51;9.60;;;5.60;;
4001;SDS011;2015;48.670;9.060;2023-02-01T17:25:23;5.80;;;4.20;;
4001;SDS011;2015;48.670;9.060;2023-02-01T17:27:57;4.20;;;3.60;;
4001;SDS011;2015;48.670;9.060;2023-02-01T17:30:29;10.70;;;4.00;;
4001;SDS011;2015;48.670;9.060;2023-02-01T17:33:02;9.33;;;4.13;;
4001;SDS011;2015;48.670;9.060;2023-02-01T17:35:52;8.43;;;4.40;;
4001;SDS011;2015;48.670;9.060;2023-02-01T17:38:25;12.03;;;4.83;;
4001;SDS011;2015;48.670;9.060;2023-02-01T17:40:57;10.20;;;4.50;;
4001;SDS011;2015;48.670;9.060;2023-02-01T17:43:29;5.78;;;4.40;;
4001;SDS011;2015;48.670;9.060;2023-02-01T17:46:03;10.07;;;5.00;;
4001;SDS011;2015;48.670;9.060;2023-02-01T17:48:44;5.67;;;4.07;;
4001;SDS011;2015;48.670;9.060;2023-02-01T17:51:26;5.60;;;3.70;;
4001;SDS011;2015;48.670;9.060;2023-02-01T17:53:59;11.90;;;4.00;;
4001;SDS011;2015;48.670;9.060;2023-02-01T17:56:30;13.53;;;6.20;;
4001;SDS011;2015;48.670;9.060;2023-02-01T17:59:03;6.97;;;4.13;;
4001;SDS011;2015;48.670;9.060;2023-02-01T18:01:34;7.40;;;5.10;;
4001;SDS011;2015;48.670;9.060;2023-02-01T18:04:13;7.37;;;4.50;;
4001;SDS011;2015;48.670;9.060;2023-02-01T18:06:47;12.67;;;7.27;;
4001;SDS011;2015;48.670;9.060;2023-02-01T18:09:19;8.47;;;5.93;;
4001;SDS011;2015;48.670;9.060;2023-02-01T18:11:51;6.80;;;5.53;;
4001;SDS011;2015;48.670;9.060;2023-02-01T18:14:25;8.93;;;5.70;;
4001;SDS011;2015;48.670;9.060;2023-02-01T18:16:57;11.20;;;4.30;;
4001;SDS011;2015;48.670;9.060;2023-02-01T18:19:28;5.60;;;4.47;;
4001;SDS011;2015;48.670;9.060;2023-02-01T18:22:00;4.90;;;4.07;;
4001;SDS011;2015;48.670;9.060;2023-02-01T18:24:33;6.93;;;5.70;;
4001;SDS011;2015;48.670;9.060;2023-02-01T18:27:06;7.20;;;4.57;;
4001;SDS011;2015;48.670;9.060;2023-02-01T18:29:38;5.97;;;4.20;;
4001;SDS011;2015;48.670;9.060;2023-02-01T18:32:10;6.17;;;4.60;;
4001;SDS011;2015;48.670;9.060;2023-02-01T18:34:42;5.43;;;4.10;;
4001;SDS011;2015;48.670;9.060;2023-02-01T18:37:13;20.13;;;5.50;;
4001;SDS011;2015;48.670;9.060;2023-02-01T18:39:45;8.83;;;4.50;;
4001;SDS011;2015;48.670;9.060;2023-02-01T18:42:17;7.33;;;5.63;;
4001;SDS011;2015;48.670;9.060;2023-02-01T18:44:48;7.20;;;3.60;;
4001;SDS011;2015;48.670;9.060;2023-02-01T18:47:20;9.43;;;4.30;;
4001;SDS011;2015;48.670;9.060;2023-02-01T18:49:52;7.10;;;4.67;;
4001;SDS011;2015;48.670;9.060;2023-02-01T18:52:23;8.93;;;5.50;;
4001;SDS011;2015;48.670;9.060;2023-02-01T18:54:55;4.20;;;3.90;;
4001;SDS011;2015;48.670;9.060;2023-02-01T18:57:30;10.00;;;5.50;;
4001;SDS011;2015;48.670;9.060;2023-02-01T19:00:04;12.73;;;5.27;;
4001;SDS011;2015;48.670;9.060;2023-02-01T19:02:38;6.73;;;3.93;;
4001;SDS011;2015;48.670;9.060;2023-02-01T19:05:10;10.20;;;4.80;;
4001;SDS011;2015;48.670;9.060;2023-02-01T19:07:42;6.10;;;4.67;;
4001;SDS011;2015;48.670;9.060;2023-02-01T19:10:19;5.97;;;4.53;;
4001;SDS011;2015;48.670;9.060;2023-02-01T19:12:52;5.30;;;3.60;;
4001;SDS011;2015;48.670;9.060;2023-02-01T19:15:25;5.77;;;4.77;;